sensor_id;sensor_type;location;lat;lon;timestamp;pressure;altitude;pressure_sealevel;temperature;humidity
12801;BME280;6464;42.494;27.470;2023-04-20T04:52:41;99425.78;;;11.07;100.00
12801;BME280;6464;42.494;27.470;2023-04-20T07:38:51;99746.06;;;15.54;100.00
12801;BME280;6464;42.494;27.470;2023-04-20T07:41:42;99730.25;;;15.84;100.00
12801;BME280;6464;42.494;27.470;2023-04-20T07:44:24;99744.78;;;16.10;100.00
12801;BME280;6464;42.494;27.470;2023-04-20T07:49:42;99875.41;;;17.88;100.00
12801;BME280;6464;42.494;27.470;2023-04-20T08:14:23;99931.75;;;17.67;100.00
12801;BME280;6464;42.494;27.470;2023-04-20T08:25:50;99939.66;;;16.61;100.00
12801;BME280;6464;42.494;27.470;2023-04-20T08:28:43;100035.72;;;17.37;100.00
12801;BME280;6464;42.494;27.470;2023-04-20T08:57:06;100969.94;;;19.22;100.00
12801;BME280;6464;42.494;27.470;2023-04-20T09:57:39;100985.75;;;19.26;100.00
12801;BME280;6464;42.494;27.470;2023-04-20T11:11:31;101261.09;;;23.67;100.00
12801;BME280;6464;42.494;27.470;2023-04-20T11:14:06;101200.13;;;23.52;100.00
12801;BME280;6464;42.494;27.470;2023-04-20T11:16:33;101358.81;;;26.19;100.00
12801;BME280;6464;42.494;27.470;2023-04-20T11:19:02;101367.13;;;25.92;100.00
12801;BME280;6464;42.494;27.470;2023-04-20T11:21:36;101269.16;;;24.35;100.00
12801;BME280;6464;42.494;27.470;2023-04-20T11:24:04;101256.69;;;23.52;100.00
12801;BME280;6464;42.494;27.470;2023-04-20T11:26:37;101192.97;;;23.24;100.00
12801;BME280;6464;42.494;27.470;2023-04-20T11:29:05;101182.91;;;22.99;100.00
12801;BME280;6464;42.494;27.470;2023-04-20T11:31:32;101152.00;;;22.33;100.00
12801;BME280;6464;42.494;27.470;2023-04-20T11:33:59;101229.47;;;22.85;100.00
12801;BME280;6464;42.494;27.470;2023-04-20T11:36:28;101207.13;;;22.40;100.00
12801;BME280;6464;42.494;27.470;2023-04-20T11:39:07;101197.09;;;22.58;100.00
12801;BME280;6464;42.494;27.470;2023-04-20T11:41:39;101185.41;;;22.29;100.00
12801;BME280;6464;42.494;27.470;2023-04-20T11:44:09;101183.44;;;22.17;100.00
12801;BME280;6464;42.494;27.470;2023-04-20T11:46:41;101160.31;;;21.98;100.00
12801;BME280;6464;42.494;27.470;2023-04-20T11:49:42;101168.56;;;22.11;100.00
12801;BME280;6464;42.494;27.470;2023-04-20T11:53:30;101022.97;;;20.51;100.00
12801;BME280;6464;42.494;27.470;2023-04-20T12:26:04;100918.44;;;20.19;100.00
12801;BME280;6464;42.494;27.470;2023-04-20T12:29:14;101105.59;;;21.23;100.00
12801;BME280;6464;42.494;27.470;2023-04-20T12:31:42;101111.28;;;21.17;100.00
12801;BME280;6464;42.494;27.470;2023-04-20T12:34:09;101115.50;;;21.39;100.00
12801;BME280;6464;42.494;27.470;2023-04-20T12:36:36;101118.75;;;21.60;100.00
12801;BME280;6464;42.494;27.470;2023-04-20T12:39:03;101137.94;;;21.20;100.00
12801;BME280;6464;42.494;27.470;2023-04-20T12:41:30;101096.56;;;20.61;100.00
12801;BME280;6464;42.494;27.470;2023-04-20T12:43:57;101027.66;;;19.97;100.00
12801;BME280;6464;42.494;27.470;2023-04-20T12:46:25;101041.94;;;20.13;100.00
12801;BME280;6464;42.494;27.470;2023-04-20T12:48:52;101024.84;;;20.16;100.00
12801;BME280;6464;42.494;27.470;2023-04-20T12:51:20;101050.47;;;20.37;100.00
12801;BME280;6464;42.494;27.470;2023-04-20T12:53:47;101050.81;;;20.64;100.00
12801;BME280;6464;42.494;27.470;2023-04-20T12:56:14;101056.97;;;20.66;100.00
12801;BME280;6464;42.494;27.470;2023-04-20T12:58:41;101082.75;;;20.85;100.00
12801;BME280;6464;42.494;27.470;2023-04-20T13:01:08;101054.66;;;20.25;100.00
12801;BME280;6464;42.494;27.470;2023-04-20T13:03:36;101093.56;;;20.50;100.00
12801;BME280;6464;42.494;27.470;2023-04-20T13:06:04;101111.69;;;21.43;100.00
12801;BME280;6464;42.494;27.470;2023-04-20T13:08:31;101181.22;;;22.39;100.00
12801;BME280;6464;42.494;27.470;2023-04-20T13:10:58;101187.78;;;22.78;100.00
12801;BME280;6464;42.494;27.470;2023-04-20T13:13:25;101196.34;;;23.13;100.00
12801;BME280;6464;42.494;27.470;2023-04-20T13:15:52;101193.63;;;22.70;100.00
12801;BME280;6464;42.494;27.470;2023-04-20T13:18:19;101222.03;;;24.28;100.00
12801;BME280;6464;42.494;27.470;2023-04-20T13:20:49;101255.56;;;25.41;100.00
12801;BME280;6464;42.494;27.470;2023-04-20T13:23:16;101305.97;;;27.09;100.00
12801;BME280;6464;42.494;27.470;2023-04-20T13:25:43;101287.69;;;26.06;100.00
12801;BME280;6464;42.494;27.470;2023-04-20T13:28:10;101281.84;;;26.12;100.00
12801;BME280;6464;42.494;27.470;2023-04-20T13:30:37;101277.44;;;25.61;100.00
12801;BME280;6464;42.494;27.470;2023-04-20T13:33:04;101216.75;;;24.00;100.00
12801;BME280;6464;42.494;27.470;2023-04-20T13:35:32;101203.28;;;23.03;100.00
12801;BME280;6464;42.494;27.470;2023-04-20T13:38:00;101187.00;;;22.76;100.00
12801;BME280;6464;42.494;27.470;2023-04-20T13:40:28;101172.78;;;22.60;100.00
12801;BME280;6464;42.494;27.470;2023-04-20T13:42:55;101174.22;;;22.65;100.00
12801;BME280;6464;42.494;27.470;2023-04-20T13:45:22;101131.97;;;22.53;100.00
12801;BME280;6464;42.494;27.470;2023-04-20T13:47:49;101120.34;;;22.52;100.00
12801;BME280;6464;42.494;27.470;2023-04-20T13:50:16;101138.97;;;23.27;100.00
12801;BME280;6464;42.494;27.470;2023-04-20T13:52:43;101209.59;;;24.78;100.00
12801;BME280;6464;42.494;27.470;2023-04-20T13:55:12;101252.44;;;24.96;100.00
12801;BME280;6464;42.494;27.470;2023-04-20T13:57:38;101193.00;;;23.79;100.00
12801;BME280;6464;42.494;27.470;2023-04-20T14:00:06;101179.75;;;23.06;100.00
12801;BME280;6464;42.494;27.470;2023-04-20T14:02:34;101146.59;;;22.63;100.00
12801;BME280;6464;42.494;27.470;2023-04-20T14:05:00;101032.00;;;21.59;100.00
12801;BME280;6464;42.494;27.470;2023-04-20T14:07:29;101099.19;;;21.42;100.00
12801;BME280;6464;42.494;27.470;2023-04-20T14:09:56;101051.25;;;20.88;100.00
12801;BME280;6464;42.494;27.470;2023-04-20T14:12:26;101046.50;;;20.77;100.00
12801;BME280;6464;42.494;27.470;2023-04-20T14:14:55;100974.81;;;20.49;100.00
12801;BME280;6464;42.494;27.470;2023-04-20T14:17:22;101018.22;;;20.88;100.00
12801;BME280;6464;42.494;27.470;2023-04-20T14:19:49;101047.47;;;21.08;100.00
12801;BME280;6464;42.494;27.470;2023-04-20T14:22:16;101060.09;;;20.74;100.00
12801;BME280;6464;42.494;27.470;2023-04-20T14:24:43;101095.19;;;21.65;100.00
12801;BME280;6464;42.494;27.470;2023-04-20T14:27:12;101208.38;;;24.17;100.00
12801;BME280;6464;42.494;27.470;2023-04-20T14:29:40;101260.63;;;24.94;100.00
12801;BME280;6464;42.494;27.470;2023-04-20T14:32:07;101279.00;;;25.27;100.00
12801;BME280;6464;42.494;27.470;2023-04-20T14:34:34;101295.81;;;26.30;100.00
12801;BME280;6464;42.494;27.470;2023-04-20T14:37:01;101276.66;;;25.10;100.00
12801;BME280;6464;42.494;27.470;2023-04-20T14:39:27;101294.38;;;26.13;100.00
12801;BME280;6464;42.494;27.470;2023-04-20T14:41:54;101270.84;;;25.53;100.00
12801;BME280;6464;42.494;27.470;2023-04-20T14:44:21;101298.78;;;25.90;100.00
12801;BME280;6464;42.494;27.470;2023-04-20T14:46:50;101268.19;;;25.02;100.00
12801;BME280;6464;42.494;27.470;2023-04-20T14:49:17;101240.66;;;24.19;100.00
12801;BME280;6464;42.494;27.470;2023-04-20T14:51:44;101227.88;;;22.97;100.00
12801;BME280;6464;42.494;27.470;2023-04-20T14:54:11;101180.91;;;22.29;100.00
12801;BME280;6464;42.494;27.470;2023-04-20T14:56:38;101236.22;;;24.18;100.00
12801;BME280;6464;42.494;27.470;2023-04-20T14:59:05;101312.44;;;26.12;100.00
12801;BME280;6464;42.494;27.470;2023-04-20T15:01:32;101292.47;;;25.78;100.00
12801;BME280;6464;42.494;27.470;2023-04-20T15:04:00;101228.22;;;23.48;100.00
12801;BME280;6464;42.494;27.470;2023-04-20T15:06:27;101192.09;;;23.38;100.00
12801;BME280;6464;42.494;27.470;2023-04-20T15:08:54;101234.31;;;24.32;100.00
12801;BME280;6464;42.494;27.470;2023-04-20T15:11:21;101272.47;;;24.53;100.00
12801;BME280;6464;42.494;27.470;2023-04-20T15:13:48;101263.75;;;24.35;100.00
12801;BME280;6464;42.494;27.470;2023-04-20T15:16:16;101257.19;;;24.13;100.00
12801;BME280;6464;42.494;27.470;2023-04-20T15:18:43;101204.03;;;23.05;100.00
12801;BME280;6464;42.494;27.470;2023-04-20T15:21:24;101197.16;;;22.56;100.00
12801;BME280;6464;42.494;27.470;2023-04-20T15:23:55;101166.75;;;21.96;100.00
12801;BME280;6464;42.494;27.470;2023-04-20T15:26:22;101070.63;;;21.41;100.00
12801;BME280;6464;42.494;27.470;2023-04-20T15:28:50;101131.78;;;21.66;100.00
12801;BME280;6464;42.494;27.470;2023-04-20T15:31:17;101139.03;;;21.34;100.00
12801;BME280;6464;42.494;27.470;2023-04-20T15:33:45;101062.94;;;20.71;100.00
12801;BME280;6464;42.494;27.470;2023-04-20T15:36:12;101072.13;;;20.50;100.00
12801;BME280;6464;42.494;27.470;2023-04-20T15:38:40;101102.66;;;21.44;100.00
12801;BME280;6464;42.494;27.470;2023-04-20T15:41:07;101132.44;;;22.31;100.00
12801;BME280;6464;42.494;27.470;2023-04-20T15:43:34;101191.59;;;22.15;100.00
12801;BME280;6464;42.494;27.470;2023-04-20T15:46:01;101132.75;;;20.86;100.00
12801;BME280;6464;42.494;27.470;2023-04-20T15:48:28;101075.91;;;20.46;100.00
12801;BME280;6464;42.494;27.470;2023-04-20T15:50:55;101056.03;;;20.17;100.00
12801;BME280;6464;42.494;27.470;2023-04-20T15:53:22;101007.19;;;19.61;100.00
12801;BME280;6464;42.494;27.470;2023-04-20T15:55:51;100999.25;;;19.60;100.00
12801;BME280;6464;42.494;27.470;2023-04-20T15:58:17;100984.09;;;19.41;100.00
12801;BME280;6464;42.494;27.470;2023-04-20T16:00:45;100872.03;;;18.66;100.00
12801;BME280;6464;42.494;27.470;2023-04-20T16:03:12;100873.38;;;18.57;100.00
12801;BME280;6464;42.494;27.470;2023-04-20T16:05:39;100874.91;;;18.44;100.00
12801;BME280;6464;42.494;27.470;2023-04-20T16:08:06;100872.09;;;18.47;100.00
12801;BME280;6464;42.494;27.470;2023-04-20T16:10:33;100847.88;;;18.33;100.00
12801;BME280;6464;42.494;27.470;2023-04-20T16:13:01;100729.41;;;17.61;100.00
12801;BME280;6464;42.494;27.470;2023-04-20T16:15:30;100757.75;;;17.83;100.00
12801;BME280;6464;42.494;27.470;2023-04-20T16:17:57;100674.50;;;17.38;100.00
12801;BME280;6464;42.494;27.470;2023-04-20T16:20:41;100637.97;;;17.40;100.00
12801;BME280;6464;42.494;27.470;2023-04-20T16:24:00;100535.94;;;17.01;100.00
12801;BME280;6464;42.494;27.470;2023-04-20T16:26:35;100466.06;;;16.77;100.00
12801;BME280;6464;42.494;27.470;2023-04-20T16:39:44;100289.63;;;15.61;100.00
12801;BME280;6464;42.494;27.470;2023-04-20T16:42:20;100303.56;;;15.87;100.00
12801;BME280;6464;42.494;27.470;2023-04-20T16:50:16;100218.44;;;16.06;100.00
12801;BME280;6464;42.494;27.470;2023-04-20T17:01:07;99925.16;;;14.81;100.00
12801;BME280;6464;42.494;27.470;2023-04-20T17:03:50;100094.28;;;15.72;100.00
12801;BME280;6464;42.494;27.470;2023-04-20T17:06:34;99994.38;;;14.57;100.00
12801;BME280;6464;42.494;27.470;2023-04-20T17:27:48;100046.53;;;14.18;100.00
12801;BME280;6464;42.494;27.470;2023-04-20T17:30:19;100245.88;;;15.31;100.00
12801;BME280;6464;42.494;27.470;2023-04-20T17:43:17;100155.78;;;14.05;100.00
12801;BME280;6464;42.494;27.470;2023-04-20T17:50:56;100219.59;;;14.43;100.00
12801;BME280;6464;42.494;27.470;2023-04-20T17:53:36;100175.94;;;14.52;100.00
12801;BME280;6464;42.494;27.470;2023-04-20T17:56:08;100317.81;;;15.26;100.00
12801;BME280;6464;42.494;27.470;2023-04-20T17:58:39;100122.91;;;14.30;100.00
12801;BME280;6464;42.494;27.470;2023-04-20T18:01:26;100247.13;;;15.22;100.00
12801;BME280;6464;42.494;27.470;2023-04-20T18:04:01;100212.47;;;15.25;100.00
12801;BME280;6464;42.494;27.470;2023-04-20T18:06:38;99934.97;;;13.62;100.00
12801;BME280;6464;42.494;27.470;2023-04-20T18:09:49;100140.03;;;15.22;100.00
12801;BME280;6464;42.494;27.470;2023-04-20T18:12:20;99965.69;;;13.87;100.00
12801;BME280;6464;42.494;27.470;2023-04-20T18:14:51;100020.25;;;14.52;100.00
12801;BME280;6464;42.494;27.470;2023-04-20T18:17:19;99879.16;;;13.86;100.00
12801;BME280;6464;42.494;27.470;2023-04-20T18:19:52;99874.19;;;14.18;100.00
12801;BME280;6464;42.494;27.470;2023-04-20T18:22:26;99759.81;;;14.06;100.00
12801;BME280;6464;42.494;27.470;2023-04-20T18:25:03;99662.72;;;13.68;100.00
12801;BME280;6464;42.494;27.470;2023-04-20T18:27:36;99746.00;;;14.36;100.00
12801;BME280;6464;42.494;27.470;2023-04-20T18:32:41;99621.94;;;14.06;100.00
12801;BME280;6464;42.494;27.470;2023-04-20T18:35:13;99468.03;;;13.59;100.00
12801;BME280;6464;42.494;27.470;2023-04-20T18:37:44;99581.72;;;14.15;100.00
12801;BME280;6464;42.494;27.470;2023-04-20T18:40:14;99443.88;;;13.48;100.00
12801;BME280;6464;42.494;27.470;2023-04-20T18:50:46;99537.31;;;13.69;100.00
12801;BME280;6464;42.494;27.470;2023-04-20T18:53:23;99680.16;;;14.44;100.00
12801;BME280;6464;42.494;27.470;2023-04-20T18:55:53;99583.56;;;13.61;100.00
12801;BME280;6464;42.494;27.470;2023-04-20T18:58:27;99554.25;;;13.09;100.00
12801;BME280;6464;42.494;27.470;2023-04-20T19:00:56;99604.75;;;13.05;100.00
12801;BME280;6464;42.494;27.470;2023-04-20T19:03:26;99714.75;;;13.87;100.00
12801;BME280;6464;42.494;27.470;2023-04-20T19:05:57;99586.00;;;12.91;100.00
12801;BME280;6464;42.494;27.470;2023-04-20T19:08:27;99794.03;;;14.30;100.00
12801;BME280;6464;42.494;27.470;2023-04-20T19:11:08;99683.78;;;13.52;100.00
12801;BME280;6464;42.494;27.470;2023-04-20T19:13:40;99808.34;;;14.08;100.00
12801;BME280;6464;42.494;27.470;2023-04-20T19:16:12;99613.06;;;12.97;100.00
12801;BME280;6464;42.494;27.470;2023-04-20T19:18:54;99733.47;;;13.28;100.00
12801;BME280;6464;42.494;27.470;2023-04-20T19:21:33;99786.44;;;13.47;100.00
12801;BME280;6464;42.494;27.470;2023-04-20T19:24:08;99703.38;;;12.69;100.00
12801;BME280;6464;42.494;27.470;2023-04-20T19:26:36;99668.47;;;12.41;100.00
12801;BME280;6464;42.494;27.470;2023-04-20T19:31:41;99765.19;;;12.67;100.00
12801;BME280;6464;42.494;27.470;2023-04-20T19:34:20;99649.88;;;12.22;100.00
12801;BME280;6464;42.494;27.470;2023-04-20T19:36:54;99717.06;;;12.79;100.00
12801;BME280;6464;42.494;27.470;2023-04-20T19:39:31;99839.88;;;13.56;100.00
12801;BME280;6464;42.494;27.470;2023-04-20T19:42:03;99789.78;;;13.11;100.00
12801;BME280;6464;42.494;27.470;2023-04-20T19:44:32;99681.38;;;12.48;100.00
12801;BME280;6464;42.494;27.470;2023-04-20T19:47:52;99670.00;;;12.46;100.00
12801;BME280;6464;42.494;27.470;2023-04-20T19:50:26;99851.94;;;13.63;100.00
12801;BME280;6464;42.494;27.470;2023-04-20T19:53:25;99750.78;;;13.15;100.00
12801;BME280;6464;42.494;27.470;2023-04-20T19:55:55;99715.88;;;12.86;100.00
12801;BME280;6464;42.494;27.470;2023-04-20T19:58:25;99717.84;;;12.81;100.00
12801;BME280;6464;42.494;27.470;2023-04-20T20:01:09;99776.88;;;13.24;100.00
12801;BME280;6464;42.494;27.470;2023-04-20T20:03:42;99649.28;;;12.56;100.00
12801;BME280;6464;42.494;27.470;2023-04-20T20:06:14;99649.50;;;12.31;100.00
12801;BME280;6464;42.494;27.470;2023-04-20T20:08:45;99756.75;;;12.99;100.00
12801;BME280;6464;42.494;27.470;2023-04-20T20:11:13;99727.72;;;12.77;100.00
12801;BME280;6464;42.494;27.470;2023-04-20T20:13:46;99824.84;;;13.57;100.00
12801;BME280;6464;42.494;27.470;2023-04-20T20:16:19;99721.16;;;12.86;100.00
12801;BME280;6464;42.494;27.470;2023-04-20T20:18:49;99646.53;;;12.39;100.00
12801;BME280;6464;42.494;27.470;2023-04-20T20:21:18;99651.75;;;12.20;100.00
12801;BME280;6464;42.494;27.470;2023-04-20T20:23:49;99756.88;;;12.76;100.00
12801;BME280;6464;42.494;27.470;2023-04-20T20:26:20;99818.50;;;13.20;100.00
12801;BME280;6464;42.494;27.470;2023-04-20T20:28:49;99749.03;;;12.74;100.00
12801;BME280;6464;42.494;27.470;2023-04-20T20:31:25;99668.38;;;12.22;100.00
12801;BME280;6464;42.494;27.470;2023-04-20T20:36:49;99783.56;;;12.92;100.00
12801;BME280;6464;42.494;27.470;2023-04-20T20:39:48;99800.34;;;12.91;100.00
12801;BME280;6464;42.494;27.470;2023-04-20T20:45:06;99838.28;;;12.91;100.00
12801;BME280;6464;42.494;27.470;2023-04-20T20:47:48;99832.44;;;12.83;100.00
12801;BME280;6464;42.494;27.470;2023-04-20T20:50:22;99692.31;;;12.19;100.00
12801;BME280;6464;42.494;27.470;2023-04-20T20:52:52;99865.25;;;12.99;100.00
12801;BME280;6464;42.494;27.470;2023-04-20T20:55:26;99842.72;;;13.11;100.00
12801;BME280;6464;42.494;27.470;2023-04-20T20:57:59;99653.19;;;12.27;100.00
12801;BME280;6464;42.494;27.470;2023-04-20T21:00:29;99665.47;;;12.28;100.00
12801;BME280;6464;42.494;27.470;2023-04-20T21:02:58;99725.28;;;12.73;100.00
12801;BME280;6464;42.494;27.470;2023-04-20T21:05:32;99653.19;;;12.27;100.00
12801;BME280;6464;42.494;27.470;2023-04-20T21:08:08;99831.84;;;13.58;100.00
12801;BME280;6464;42.494;27.470;2023-04-20T21:10:38;99752.13;;;12.84;100.00
12801;BME280;6464;42.494;27.470;2023-04-20T21:13:10;99840.59;;;13.60;100.00
12801;BME280;6464;42.494;27.470;2023-04-20T21:15:46;99791.72;;;13.28;100.00
12801;BME280;6464;42.494;27.470;2023-04-20T21:18:20;99771.28;;;13.09;100.00
12801;BME280;6464;42.494;27.470;2023-04-20T21:20:55;99699.34;;;12.81;100.00
12801;BME280;6464;42.494;27.470;2023-04-20T21:23:28;99770.53;;;13.07;100.00
12801;BME280;6464;42.494;27.470;2023-04-20T21:26:06;99735.78;;;12.74;100.00
12801;BME280;6464;42.494;27.470;2023-04-20T21:28:35;99872.22;;;13.44;100.00
12801;BME280;6464;42.494;27.470;2023-04-20T21:31:11;99758.09;;;12.69;100.00
12801;BME280;6464;42.494;27.470;2023-04-20T21:33:46;99949.41;;;13.76;100.00
12801;BME280;6464;42.494;27.470;2023-04-20T21:36:19;99814.59;;;12.88;100.00
12801;BME280;6464;42.494;27.470;2023-04-20T21:38:47;99749.19;;;12.49;100.00
12801;BME280;6464;42.494;27.470;2023-04-20T21:41:24;99938.19;;;13.49;100.00
12801;BME280;6464;42.494;27.470;2023-04-20T21:43:54;99830.66;;;13.04;100.00
12801;BME280;6464;42.494;27.470;2023-04-20T21:46:23;99878.09;;;13.08;100.00
12801;BME280;6464;42.494;27.470;2023-04-20T21:48:52;99940.41;;;13.59;100.00
12801;BME280;6464;42.494;27.470;2023-04-20T21:51:23;99899.16;;;12.91;100.00
12801;BME280;6464;42.494;27.470;2023-04-20T21:53:54;99802.75;;;12.54;100.00
12801;BME280;6464;42.494;27.470;2023-04-20T21:56:39;99951.13;;;13.56;100.00
12801;BME280;6464;42.494;27.470;2023-04-20T21:59:07;99804.50;;;12.76;100.00
12801;BME280;6464;42.494;27.470;2023-04-20T22:01:48;99828.28;;;12.77;100.00
12801;BME280;6464;42.494;27.470;2023-04-20T22:06:55;99944.84;;;13.59;100.00
12801;BME280;6464;42.494;27.470;2023-04-20T22:09:24;99942.41;;;13.54;100.00
12801;BME280;6464;42.494;27.470;2023-04-20T22:11:58;99814.50;;;12.69;100.00
12801;BME280;6464;42.494;27.470;2023-04-20T22:14:30;99772.44;;;12.41;100.00
12801;BME280;6464;42.494;27.470;2023-04-20T22:16:59;99803.41;;;12.81;100.00
12801;BME280;6464;42.494;27.470;2023-04-20T22:19:35;99964.94;;;13.65;100.00
12801;BME280;6464;42.494;27.470;2023-04-20T22:22:07;99961.34;;;13.66;100.00
12801;BME280;6464;42.494;27.470;2023-04-20T22:24:36;99925.16;;;13.24;100.00
12801;BME280;6464;42.494;27.470;2023-04-20T22:27:06;99932.91;;;13.49;100.00
12801;BME280;6464;42.494;27.470;2023-04-20T22:29:34;99844.25;;;12.96;100.00
12801;BME280;6464;42.494;27.470;2023-04-20T22:32:04;99954.81;;;13.73;100.00
12801;BME280;6464;42.494;27.470;2023-04-20T22:34:33;99981.69;;;13.65;100.00
12801;BME280;6464;42.494;27.470;2023-04-20T22:37:02;99801.56;;;12.61;100.00
12801;BME280;6464;42.494;27.470;2023-04-20T22:39:33;99816.19;;;12.70;100.00
12801;BME280;6464;42.494;27.470;2023-04-20T22:42:20;99848.44;;;12.80;100.00
12801;BME280;6464;42.494;27.470;2023-04-20T22:44:57;99899.75;;;13.40;100.00
12801;BME280;6464;42.494;27.470;2023-04-20T22:47:27;99809.56;;;12.60;100.00
12801;BME280;6464;42.494;27.470;2023-04-20T22:49:55;99909.41;;;13.41;100.00
12801;BME280;6464;42.494;27.470;2023-04-20T22:52:29;99875.66;;;13.04;100.00
12801;BME280;6464;42.494;27.470;2023-04-20T22:55:05;99968.09;;;13.73;100.00
12801;BME280;6464;42.494;27.470;2023-04-20T22:57:41;99783.88;;;12.64;100.00
12801;BME280;6464;42.494;27.470;2023-04-20T23:00:10;99836.78;;;12.64;100.00
12801;BME280;6464;42.494;27.470;2023-04-20T23:02:39;99971.19;;;13.62;100.00
12801;BME280;6464;42.494;27.470;2023-04-20T23:05:13;99760.91;;;12.44;100.00
12801;BME280;6464;42.494;27.470;2023-04-20T23:07:47;99861.47;;;12.84;100.00
12801;BME280;6464;42.494;27.470;2023-04-20T23:10:15;99787.38;;;12.42;100.00
12801;BME280;6464;42.494;27.470;2023-04-20T23:12:55;99794.34;;;12.45;100.00
12801;BME280;6464;42.494;27.470;2023-04-20T23:15:27;99849.91;;;12.87;100.00
12801;BME280;6464;42.494;27.470;2023-04-20T23:17:55;99787.56;;;12.59;100.00
12801;BME280;6464;42.494;27.470;2023-04-20T23:20:25;99801.22;;;12.49;100.00
12801;BME280;6464;42.494;27.470;2023-04-20T23:22:54;99901.66;;;13.15;100.00
12801;BME280;6464;42.494;27.470;2023-04-20T23:25:21;99990.38;;;13.69;100.00
12801;BME280;6464;42.494;27.470;2023-04-20T23:27:50;99829.22;;;12.54;100.00
12801;BME280;6464;42.494;27.470;2023-04-20T23:30:20;99912.91;;;12.99;100.00
12801;BME280;6464;42.494;27.470;2023-04-20T23:32:58;100012.00;;;13.58;100.00
12801;BME280;6464;42.494;27.470;2023-04-20T23:35:56;99832.31;;;12.42;100.00
12801;BME280;6464;42.494;27.470;2023-04-20T23:38:29;99961.16;;;13.28;100.00
12801;BME280;6464;42.494;27.470;2023-04-20T23:41:07;99997.41;;;13.48;100.00
12801;BME280;6464;42.494;27.470;2023-04-20T23:43:38;99835.91;;;12.41;100.00
12801;BME280;6464;42.494;27.470;2023-04-20T23:46:19;100015.75;;;13.52;100.00
12801;BME280;6464;42.494;27.470;2023-04-20T23:48:51;99965.00;;;13.19;100.00
12801;BME280;6464;42.494;27.470;2023-04-20T23:51:35;99791.63;;;12.02;100.00
12801;BME280;6464;42.494;27.470;2023-04-20T23:54:25;100019.53;;;13.47;100.00
12801;BME280;6464;42.494;27.470;2023-04-20T23:56:55;99917.38;;;12.77;100.00
12801;BME280;6464;42.494;27.470;2023-04-20T23:59:25;99887.69;;;12.69;100.00
